createdAt,value
2018-09-11T00:00:39.491Z,983.12
2018-09-11T00:01:39.733Z,983.16
2018-09-11T00:02:39.974Z,983.10
2018-09-11T00:03:40.214Z,983.16
2018-09-11T00:04:40.456Z,983.17
2018-09-11T00:05:40.697Z,983.20
2018-09-11T00:06:40.934Z,983.17
2018-09-11T00:07:41.176Z,983.16
2018-09-11T00:08:41.415Z,983.15
2018-09-11T00:09:41.658Z,983.15
2018-09-11T00:10:41.901Z,983.14
2018-09-11T00:11:42.138Z,983.08
2018-09-11T00:12:42.377Z,983.11
2018-09-11T00:13:42.618Z,983.04
2018-09-11T00:14:42.857Z,983.03
2018-09-11T00:15:43.097Z,983.03
2018-09-11T00:16:43.337Z,982.98
2018-09-11T00:17:43.578Z,982.99
2018-09-11T00:18:43.818Z,982.95
2018-09-11T00:19:44.058Z,982.96
2018-09-11T00:20:44.299Z,982.96
2018-09-11T00:21:44.540Z,982.96
2018-09-11T00:22:44.782Z,982.97
2018-09-11T00:23:45.022Z,982.94
2018-09-11T00:24:45.262Z,982.93
2018-09-11T00:25:45.501Z,982.93
2018-09-11T00:26:45.741Z,982.96
2018-09-11T00:27:45.989Z,982.95
2018-09-11T00:28:46.221Z,983.00
2018-09-11T00:29:46.461Z,983.00
2018-09-11T00:30:46.701Z,982.99
2018-09-11T00:31:46.944Z,982.98
2018-09-11T00:32:47.179Z,982.96
2018-09-11T00:33:47.419Z,982.95
2018-09-11T00:34:55.278Z,982.95
2018-09-11T00:35:47.950Z,982.93
2018-09-11T00:36:48.190Z,982.96
2018-09-11T00:37:48.431Z,982.95
2018-09-11T00:38:48.672Z,982.93
2018-09-11T00:39:48.911Z,982.95
2018-09-11T00:40:49.155Z,982.92
2018-09-11T00:41:49.390Z,982.99
2018-09-11T00:42:49.630Z,982.98
2018-09-11T00:43:49.869Z,982.99
2018-09-11T00:44:50.111Z,982.98
2018-09-11T00:45:50.349Z,983.01
2018-09-11T00:46:50.589Z,983.00
2018-09-11T00:47:50.828Z,982.98
2018-09-11T00:48:51.066Z,983.00
2018-09-11T00:49:51.307Z,983.00
2018-09-11T00:50:51.545Z,983.06
2018-09-11T00:51:51.835Z,983.05
2018-09-11T00:52:52.028Z,983.05
2018-09-11T00:53:52.269Z,983.07
2018-09-11T00:54:52.507Z,983.06
2018-09-11T00:55:52.744Z,983.05
2018-09-11T00:56:52.984Z,983.06
2018-09-11T00:57:53.231Z,983.05
2018-09-11T00:58:53.461Z,983.02
2018-09-11T00:59:53.704Z,983.00
2018-09-11T01:00:53.946Z,983.03
2018-09-11T01:01:54.180Z,983.07
2018-09-11T01:02:54.420Z,983.07
2018-09-11T01:03:54.667Z,983.12
2018-09-11T01:04:54.902Z,983.11
2018-09-11T01:05:55.145Z,983.11
2018-09-11T01:06:55.372Z,983.12
2018-09-11T01:07:55.622Z,983.09
2018-09-11T01:08:55.875Z,983.11
2018-09-11T01:09:56.100Z,983.09
2018-09-11T01:10:56.341Z,983.09
2018-09-11T01:11:56.580Z,983.07
2018-09-11T01:12:56.824Z,983.10
2018-09-11T01:13:57.062Z,983.03
2018-09-11T01:14:57.300Z,983.01
2018-09-11T01:15:57.540Z,983.04
2018-09-11T01:16:57.783Z,983.04
2018-09-11T01:17:58.019Z,983.03
2018-09-11T01:18:58.258Z,983.05
2018-09-11T01:19:58.497Z,983.07
2018-09-11T01:20:58.737Z,983.09
2018-09-11T01:21:58.974Z,983.13
2018-09-11T01:22:59.218Z,983.12
2018-09-11T01:23:59.487Z,983.14
2018-09-11T01:24:59.697Z,983.16
2018-09-11T01:25:59.949Z,983.13
2018-09-11T01:27:00.176Z,983.15
2018-09-11T01:28:00.413Z,983.18
2018-09-11T01:29:00.654Z,983.15
2018-09-11T01:30:00.899Z,983.17
2018-09-11T01:31:01.136Z,983.15
2018-09-11T01:32:01.376Z,983.15
2018-09-11T01:33:01.616Z,983.14
2018-09-11T01:34:01.857Z,983.19
2018-09-11T01:35:02.099Z,983.18
2018-09-11T01:36:02.337Z,983.22
2018-09-11T01:37:02.579Z,983.21
2018-09-11T01:38:02.819Z,983.23
2018-09-11T01:39:03.055Z,983.25
2018-09-11T01:40:03.302Z,983.25
2018-09-11T01:41:03.538Z,983.21
2018-09-11T01:42:03.779Z,983.19
2018-09-11T01:43:04.017Z,983.19
2018-09-11T01:44:04.255Z,983.19
2018-09-11T01:45:04.494Z,983.17
2018-09-11T01:46:04.736Z,983.19
2018-09-11T01:47:04.975Z,983.19
2018-09-11T01:48:05.212Z,983.16
2018-09-11T01:49:05.453Z,983.21
2018-09-11T01:50:05.693Z,983.21
2018-09-11T01:51:05.935Z,983.24
2018-09-11T01:52:06.175Z,983.27
2018-09-11T01:53:06.414Z,983.26
2018-09-11T01:54:06.657Z,983.30
2018-09-11T01:55:06.896Z,983.29
2018-09-11T01:56:07.136Z,983.30
2018-09-11T01:57:07.374Z,983.28
2018-09-11T01:58:07.614Z,983.25
2018-09-11T01:59:07.851Z,983.27
2018-09-11T02:00:08.093Z,983.27
2018-09-11T02:01:08.331Z,983.25
2018-09-11T02:02:08.570Z,983.24
2018-09-11T02:03:08.810Z,983.23
2018-09-11T02:04:09.050Z,983.21
2018-09-11T02:05:09.293Z,983.24
2018-09-11T02:06:09.530Z,983.27
2018-09-11T02:07:09.770Z,983.27
2018-09-11T02:08:10.009Z,983.32
2018-09-11T02:09:10.251Z,983.31
2018-09-11T02:10:10.489Z,983.33
2018-09-11T02:11:10.730Z,983.32
2018-09-11T02:12:10.969Z,983.29
2018-09-11T02:13:11.206Z,983.32
2018-09-11T02:14:11.446Z,983.30
2018-09-11T02:15:11.687Z,983.35
2018-09-11T02:16:11.926Z,983.38
2018-09-11T02:17:12.167Z,983.35
2018-09-11T02:18:12.405Z,983.40
2018-09-11T02:19:12.645Z,983.36
2018-09-11T02:20:12.885Z,983.36
2018-09-11T02:21:13.126Z,983.39
2018-09-11T02:22:13.367Z,983.40
2018-09-11T02:23:13.607Z,983.41
2018-09-11T02:24:13.847Z,983.35
2018-09-11T02:25:14.087Z,983.32
2018-09-11T02:26:14.331Z,983.30
2018-09-11T02:27:14.566Z,983.26
2018-09-11T02:28:14.806Z,983.27
2018-09-11T02:29:15.046Z,983.23
2018-09-11T02:30:15.291Z,983.26
2018-09-11T02:31:15.531Z,983.24
2018-09-11T02:32:15.769Z,983.22
2018-09-11T02:33:15.996Z,983.24
2018-09-11T02:34:16.238Z,983.24
2018-09-11T02:35:24.110Z,983.21
2018-09-11T02:36:16.783Z,983.19
2018-09-11T02:37:17.016Z,983.18
2018-09-11T02:38:17.256Z,983.16
2018-09-11T02:39:17.496Z,983.15
2018-09-11T02:40:17.735Z,983.18
2018-09-11T02:41:17.976Z,983.17
2018-09-11T02:42:18.214Z,983.18
2018-09-11T02:43:18.452Z,983.14
2018-09-11T02:44:18.694Z,983.16
2018-09-11T02:45:18.932Z,983.12
2018-09-11T02:46:19.180Z,983.11
2018-09-11T02:47:19.411Z,983.12
2018-09-11T02:48:19.650Z,983.13
2018-09-11T02:49:19.957Z,983.11
2018-09-11T02:50:20.131Z,983.12
2018-09-11T02:51:20.371Z,983.10
2018-09-11T02:52:20.608Z,983.11
2018-09-11T02:53:20.847Z,983.15
2018-09-11T02:54:21.091Z,983.15
2018-09-11T02:55:21.329Z,983.11
2018-09-11T02:56:21.563Z,983.14
2018-09-11T02:57:21.803Z,983.11
2018-09-11T02:58:22.042Z,983.12
2018-09-11T02:59:22.287Z,983.11
2018-09-11T03:00:22.528Z,983.11
2018-09-11T03:01:22.766Z,983.09
2018-09-11T03:02:23.002Z,983.12
2018-09-11T03:03:23.242Z,983.12
2018-09-11T03:04:23.482Z,983.11
2018-09-11T03:05:23.720Z,983.15
2018-09-11T03:06:23.957Z,983.14
2018-09-11T03:07:24.200Z,983.15
2018-09-11T03:08:24.436Z,983.08
2018-09-11T03:09:24.674Z,983.04
2018-09-11T03:10:24.914Z,983.06
2018-09-11T03:11:25.152Z,983.07
2018-09-11T03:12:25.392Z,983.07
2018-09-11T03:13:25.631Z,983.01
2018-09-11T03:14:25.874Z,983.03
2018-09-11T03:15:26.110Z,983.03
2018-09-11T03:16:26.350Z,983.02
2018-09-11T03:17:26.589Z,982.99
2018-09-11T03:18:26.827Z,983.00
2018-09-11T03:19:27.064Z,983.01
2018-09-11T03:20:27.304Z,983.01
2018-09-11T03:21:27.544Z,982.97
2018-09-11T03:22:27.784Z,983.02
2018-09-11T03:23:28.022Z,983.04
2018-09-11T03:24:28.258Z,983.06
2018-09-11T03:25:28.498Z,983.07
2018-09-11T03:26:28.737Z,983.11
2018-09-11T03:27:28.975Z,983.13
2018-09-11T03:28:29.216Z,983.13
2018-09-11T03:29:29.453Z,983.14
2018-09-11T03:30:29.692Z,983.16
2018-09-11T03:31:29.930Z,983.15
2018-09-11T03:32:30.169Z,983.14
2018-09-11T03:33:30.407Z,983.12
2018-09-11T03:34:30.647Z,983.08
2018-09-11T03:35:30.887Z,983.09
2018-09-11T03:36:31.128Z,983.07
2018-09-11T03:37:31.368Z,983.06
2018-09-11T03:38:31.608Z,983.06
2018-09-11T03:39:31.847Z,983.05
2018-09-11T03:40:32.085Z,983.03
2018-09-11T03:41:32.324Z,983.03
2018-09-11T03:42:32.562Z,983.05
2018-09-11T03:43:32.800Z,983.02
2018-09-11T03:44:33.046Z,983.10
2018-09-11T03:45:33.288Z,983.10
2018-09-11T03:46:33.526Z,983.11
2018-09-11T03:47:33.759Z,983.11
2018-09-11T03:48:33.998Z,983.12
2018-09-11T03:49:34.236Z,983.13
2018-09-11T03:50:34.475Z,983.15
2018-09-11T03:51:34.713Z,983.17
2018-09-11T03:52:34.952Z,983.17
2018-09-11T03:53:35.195Z,983.16
2018-09-11T03:54:35.429Z,983.16
2018-09-11T03:55:35.667Z,983.13
2018-09-11T03:56:35.905Z,983.15
2018-09-11T03:57:36.145Z,983.14
2018-09-11T03:58:36.383Z,983.20
2018-09-11T03:59:36.620Z,983.25
2018-09-11T04:00:36.864Z,983.23
2018-09-11T04:01:37.103Z,983.28
2018-09-11T04:02:37.341Z,983.29
2018-09-11T04:03:37.583Z,983.32
2018-09-11T04:04:37.819Z,983.26
2018-09-11T04:05:38.169Z,983.31
2018-09-11T04:06:38.295Z,983.29
2018-09-11T04:07:38.519Z,983.27
2018-09-11T04:08:38.771Z,983.32
2018-09-11T04:09:39.028Z,983.31
2018-09-11T04:10:39.247Z,983.34
2018-09-11T04:11:39.487Z,983.36
2018-09-11T04:12:39.727Z,983.38
2018-09-11T04:13:39.969Z,983.36
2018-09-11T04:14:40.204Z,983.39
2018-09-11T04:15:40.437Z,983.43
2018-09-11T04:16:40.680Z,983.42
2018-09-11T04:17:40.911Z,983.41
2018-09-11T04:18:41.158Z,983.43
2018-09-11T04:19:41.400Z,983.46
2018-09-11T04:20:41.639Z,983.42
2018-09-11T04:21:41.883Z,983.44
2018-09-11T04:22:42.114Z,983.43
2018-09-11T04:23:42.351Z,983.49
2018-09-11T04:24:42.590Z,983.53
2018-09-11T04:25:42.883Z,983.54
2018-09-11T04:26:43.069Z,983.54
2018-09-11T04:27:43.311Z,983.59
2018-09-11T04:28:43.548Z,983.55
2018-09-11T04:29:43.789Z,983.53
2018-09-11T04:30:44.027Z,983.61
2018-09-11T04:31:44.263Z,983.57
2018-09-11T04:32:44.503Z,983.59
2018-09-11T04:33:44.742Z,983.58
2018-09-11T04:34:44.978Z,983.54
2018-09-11T04:35:52.832Z,983.54
2018-09-11T04:36:45.499Z,983.54
2018-09-11T04:37:45.738Z,983.51
2018-09-11T04:38:45.977Z,983.51
2018-09-11T04:39:46.217Z,983.51
2018-09-11T04:40:46.456Z,983.52
2018-09-11T04:41:46.693Z,983.53
2018-09-11T04:42:46.970Z,983.58
2018-09-11T04:43:47.177Z,983.59
2018-09-11T04:44:47.413Z,983.65
2018-09-11T04:45:47.660Z,983.66
2018-09-11T04:46:47.888Z,983.65
2018-09-11T04:47:48.129Z,983.64
2018-09-11T04:48:48.367Z,983.67
2018-09-11T04:49:48.608Z,983.67
2018-09-11T04:50:48.844Z,983.68
2018-09-11T04:51:49.083Z,983.67
2018-09-11T04:52:49.321Z,983.68
2018-09-11T04:53:49.562Z,983.64
2018-09-11T04:54:49.799Z,983.66
2018-09-11T04:55:50.040Z,983.65
2018-09-11T04:56:50.277Z,983.65
2018-09-11T04:57:50.517Z,983.65
2018-09-11T04:58:50.757Z,983.70
2018-09-11T04:59:50.995Z,983.68
2018-09-11T05:00:51.235Z,983.70
2018-09-11T05:01:51.474Z,983.72
2018-09-11T05:02:51.714Z,983.76
2018-09-11T05:03:51.953Z,983.75
2018-09-11T05:04:52.192Z,983.79
2018-09-11T05:05:52.433Z,983.82
2018-09-11T05:06:52.671Z,983.84
2018-09-11T05:07:52.913Z,983.81
2018-09-11T05:08:53.151Z,983.80
2018-09-11T05:09:53.391Z,983.85
2018-09-11T05:10:53.631Z,983.79
2018-09-11T05:11:53.870Z,983.82
2018-09-11T05:12:54.111Z,983.85
2018-09-11T05:13:54.362Z,983.87
2018-09-11T05:14:54.604Z,983.88
2018-09-11T05:15:54.860Z,983.86
2018-09-11T05:16:55.105Z,983.85
2018-09-11T05:17:55.342Z,983.88
2018-09-11T05:18:55.585Z,983.83
2018-09-11T05:19:55.821Z,983.82
2018-09-11T05:20:56.064Z,983.82
2018-09-11T05:21:56.303Z,983.82
2018-09-11T05:22:56.544Z,983.78
2018-09-11T05:23:56.784Z,983.78
2018-09-11T05:24:57.028Z,983.80
2018-09-11T05:25:57.263Z,983.78
2018-09-11T05:26:57.503Z,983.76
2018-09-11T05:27:57.749Z,983.81
2018-09-11T05:28:57.979Z,983.80
2018-09-11T05:29:58.221Z,983.79
2018-09-11T05:30:58.458Z,983.78
2018-09-11T05:31:58.699Z,983.78
2018-09-11T05:32:58.940Z,983.80
2018-09-11T05:33:59.179Z,983.81
2018-09-11T05:34:59.420Z,983.79
2018-09-11T05:35:59.659Z,983.81
2018-09-11T05:36:59.906Z,983.80
2018-09-11T05:38:00.138Z,983.77
2018-09-11T05:39:00.424Z,983.83
2018-09-11T05:40:00.615Z,983.79
2018-09-11T05:41:00.853Z,983.78
2018-09-11T05:42:01.095Z,983.81
2018-09-11T05:43:01.335Z,983.81
2018-09-11T05:44:01.570Z,983.80
2018-09-11T05:45:01.804Z,983.79
2018-09-11T05:46:02.040Z,983.78
2018-09-11T05:47:02.303Z,983.77
2018-09-11T05:48:02.521Z,983.78
2018-09-11T05:49:02.757Z,983.79
2018-09-11T05:50:02.996Z,983.78
2018-09-11T05:51:03.241Z,983.80
2018-09-11T05:52:03.472Z,983.83
2018-09-11T05:53:03.712Z,983.81
2018-09-11T05:54:03.950Z,983.81
2018-09-11T05:55:04.188Z,983.75
2018-09-11T05:56:04.427Z,983.75
2018-09-11T05:57:04.666Z,983.81
2018-09-11T05:58:04.904Z,983.83
2018-09-11T05:59:05.145Z,983.81
2018-09-11T06:00:05.384Z,983.81
2018-09-11T06:01:05.623Z,983.84
2018-09-11T06:02:05.867Z,983.89
2018-09-11T06:03:06.103Z,983.89
2018-09-11T06:04:06.347Z,983.85
2018-09-11T06:05:06.582Z,983.91
2018-09-11T06:06:06.826Z,983.93
2018-09-11T06:07:07.061Z,983.95
2018-09-11T06:08:07.301Z,983.90
2018-09-11T06:09:07.540Z,983.92
2018-09-11T06:10:07.779Z,983.93
2018-09-11T06:11:08.021Z,983.94
2018-09-11T06:12:08.262Z,983.91
2018-09-11T06:13:08.500Z,983.94
2018-09-11T06:14:08.738Z,983.95
2018-09-11T06:15:08.978Z,983.91
2018-09-11T06:16:09.245Z,983.93
2018-09-11T06:17:09.459Z,983.91
2018-09-11T06:18:09.702Z,983.96
2018-09-11T06:19:09.942Z,984.01
2018-09-11T06:20:10.186Z,984.00
2018-09-11T06:21:10.427Z,984.01
2018-09-11T06:22:10.667Z,983.93
2018-09-11T06:23:10.908Z,984.00
2018-09-11T06:24:11.146Z,983.92
2018-09-11T06:25:11.389Z,983.93
2018-09-11T06:26:11.631Z,983.93
2018-09-11T06:27:11.872Z,983.94
2018-09-11T06:28:12.117Z,983.90
2018-09-11T06:29:12.380Z,983.94
2018-09-11T06:30:12.594Z,983.93
2018-09-11T06:31:12.840Z,983.96
2018-09-11T06:32:13.080Z,983.98
2018-09-11T06:33:13.323Z,983.96
2018-09-11T06:34:13.563Z,983.97
2018-09-11T06:35:13.805Z,984.00
2018-09-11T06:36:14.050Z,983.95
2018-09-11T06:37:22.957Z,983.98
2018-09-11T06:38:14.676Z,983.92
2018-09-11T06:39:14.918Z,983.95
2018-09-11T06:40:15.161Z,983.94
2018-09-11T06:41:15.491Z,983.96
2018-09-11T06:42:15.647Z,983.95
2018-09-11T06:43:15.891Z,983.94
2018-09-11T06:44:16.138Z,983.98
2018-09-11T06:45:16.368Z,984.02
2018-09-11T06:46:16.617Z,984.02
2018-09-11T06:47:16.862Z,984.01
2018-09-11T06:48:17.102Z,984.00
2018-09-11T06:49:17.342Z,983.96
2018-09-11T06:50:17.585Z,984.02
2018-09-11T06:51:17.833Z,984.02
2018-09-11T06:52:18.072Z,983.94
2018-09-11T06:53:18.315Z,983.94
2018-09-11T06:54:18.558Z,984.01
2018-09-11T06:55:18.808Z,983.99
2018-09-11T06:56:19.064Z,984.04
2018-09-11T06:57:19.295Z,984.01
2018-09-11T06:58:19.539Z,984.05
2018-09-11T06:59:19.786Z,984.08
2018-09-11T07:00:20.025Z,984.06
2018-09-11T07:01:20.270Z,984.10
2018-09-11T07:02:20.514Z,984.14
2018-09-11T07:03:20.758Z,984.08
2018-09-11T07:04:21.013Z,984.15
2018-09-11T07:05:21.260Z,984.09
2018-09-11T07:06:21.507Z,984.15
2018-09-11T07:07:21.752Z,984.10
2018-09-11T07:08:22.046Z,984.15
2018-09-11T07:09:22.232Z,984.13
2018-09-11T07:10:22.477Z,984.16
2018-09-11T07:11:22.721Z,984.13
2018-09-11T07:12:22.963Z,984.21
2018-09-11T07:13:23.211Z,984.16
2018-09-11T07:14:23.457Z,984.16
2018-09-11T07:15:23.699Z,984.16
2018-09-11T07:16:23.939Z,984.15
2018-09-11T07:17:24.190Z,984.22
2018-09-11T07:18:24.420Z,984.13
2018-09-11T07:19:24.675Z,984.25
2018-09-11T07:20:25.018Z,984.25
2018-09-11T07:21:25.152Z,984.24
2018-09-11T07:22:25.398Z,984.27
2018-09-11T07:23:25.637Z,984.16
2018-09-11T07:24:25.883Z,984.13
2018-09-11T07:25:26.141Z,984.04
2018-09-11T07:26:26.371Z,984.01
2018-09-11T07:27:26.615Z,984.02
2018-09-11T07:28:26.858Z,984.03
2018-09-11T07:29:27.103Z,984.06
2018-09-11T07:30:27.413Z,984.05
2018-09-11T07:31:27.630Z,984.04
2018-09-11T07:32:27.890Z,984.06
2018-09-11T07:33:28.076Z,984.04
2018-09-11T07:34:28.322Z,984.02
2018-09-11T07:35:28.566Z,984.04
2018-09-11T07:36:28.871Z,984.00
2018-09-11T07:37:29.054Z,984.09
2018-09-11T07:38:29.302Z,984.09
2018-09-11T07:39:29.545Z,984.15
2018-09-11T07:40:29.820Z,984.13
2018-09-11T07:41:30.033Z,984.14
2018-09-11T07:42:30.278Z,984.04
2018-09-11T07:43:30.522Z,984.09
2018-09-11T07:44:30.764Z,984.07
2018-09-11T07:45:31.070Z,984.17
2018-09-11T07:46:31.254Z,984.14
2018-09-11T07:47:31.499Z,984.14
2018-09-11T07:48:31.747Z,984.15
2018-09-11T07:49:31.993Z,984.22
2018-09-11T07:50:32.239Z,984.22
2018-09-11T07:51:32.482Z,984.30
2018-09-11T07:52:32.804Z,984.35
2018-09-11T07:53:32.970Z,984.36
2018-09-11T07:54:33.214Z,984.39
2018-09-11T07:55:33.460Z,984.36
2018-09-11T07:56:33.756Z,984.40
2018-09-11T07:57:34.020Z,984.36
2018-09-11T07:58:34.253Z,984.46
2018-09-11T07:59:34.500Z,984.43
2018-09-11T08:00:34.745Z,984.53
2018-09-11T08:01:34.991Z,984.50
2018-09-11T08:02:35.241Z,984.50
2018-09-11T08:03:35.484Z,984.47
2018-09-11T08:04:35.736Z,984.50
2018-09-11T08:05:35.979Z,984.44
2018-09-11T08:06:36.223Z,984.39
2018-09-11T08:07:36.472Z,984.45
2018-09-11T08:08:36.719Z,984.47
2018-09-11T08:09:36.980Z,984.39
2018-09-11T08:10:37.215Z,984.52
2018-09-11T08:11:37.463Z,984.50
2018-09-11T08:12:37.707Z,984.57
2018-09-11T08:13:37.954Z,984.64
2018-09-11T08:14:38.201Z,984.68
2018-09-11T08:15:38.445Z,984.75
2018-09-11T08:16:38.694Z,984.79
2018-09-11T08:17:38.942Z,984.75
2018-09-11T08:18:39.213Z,984.69
2018-09-11T08:19:39.449Z,984.53
2018-09-11T08:20:39.686Z,984.59
2018-09-11T08:21:39.933Z,984.67
2018-09-11T08:22:40.181Z,984.72
2018-09-11T08:23:40.429Z,984.70
2018-09-11T08:24:40.678Z,984.50
2018-09-11T08:25:40.926Z,984.64
2018-09-11T08:26:41.174Z,984.47
2018-09-11T08:27:41.424Z,984.61
2018-09-11T08:28:41.671Z,984.67
2018-09-11T08:29:41.919Z,984.63
2018-09-11T08:30:42.167Z,984.66
2018-09-11T08:31:42.414Z,984.75
2018-09-11T08:32:42.666Z,984.65
2018-09-11T08:33:42.912Z,984.63
2018-09-11T08:34:43.160Z,984.70
2018-09-11T08:35:43.410Z,984.66
2018-09-11T08:36:43.658Z,984.60
2018-09-11T08:37:43.905Z,984.70
2018-09-11T08:38:44.156Z,984.68
2018-09-11T08:39:44.411Z,984.70
2018-09-11T08:40:44.652Z,984.68
2018-09-11T08:41:44.900Z,984.69
2018-09-11T08:42:45.150Z,984.78
2018-09-11T08:43:45.399Z,984.73
2018-09-11T08:44:45.647Z,984.71
2018-09-11T08:45:45.896Z,984.87
2018-09-11T08:46:46.181Z,984.82
2018-09-11T08:47:46.395Z,984.80
2018-09-11T08:48:46.644Z,984.79
2018-09-11T08:49:46.894Z,984.85
2018-09-11T08:50:47.145Z,984.85
2018-09-11T08:51:47.395Z,984.92
2018-09-11T08:52:47.705Z,985.08
2018-09-11T08:53:47.894Z,985.16
2018-09-11T08:54:48.143Z,985.35
2018-09-11T08:55:48.394Z,985.55
2018-09-11T08:56:48.643Z,985.48
2018-09-11T08:57:48.894Z,985.50
2018-09-11T08:58:49.145Z,985.45
2018-09-11T08:59:49.394Z,985.45
2018-09-11T09:00:49.645Z,985.58
2018-09-11T09:01:49.897Z,985.49
2018-09-11T09:02:50.150Z,985.39
2018-09-11T09:03:50.398Z,985.41
2018-09-11T09:04:50.648Z,985.45
2018-09-11T09:05:50.898Z,985.33
2018-09-11T09:06:51.200Z,985.36
2018-09-11T09:07:51.397Z,984.57
2018-09-11T09:08:51.649Z,985.43
2018-09-11T09:09:51.900Z,985.33
2018-09-11T09:10:52.149Z,985.27
2018-09-11T09:11:52.402Z,985.24
2018-09-11T09:12:52.656Z,985.21
2018-09-11T09:13:52.907Z,985.14
2018-09-11T09:14:53.158Z,985.15
2018-09-11T09:15:53.413Z,984.89
2018-09-11T09:16:53.663Z,985.03
2018-09-11T09:17:53.913Z,984.89
2018-09-11T09:18:54.161Z,985.00
2018-09-11T09:19:54.416Z,984.96
2018-09-11T09:20:54.717Z,984.88
2018-09-11T09:21:54.924Z,984.94
2018-09-11T09:22:55.174Z,984.87
2018-09-11T09:23:55.424Z,984.78
2018-09-11T09:24:55.674Z,984.69
2018-09-11T09:25:55.927Z,984.60
2018-09-11T09:26:56.180Z,984.63
2018-09-11T09:27:56.430Z,984.59
2018-09-11T09:28:56.681Z,984.91
2018-09-11T09:29:56.930Z,984.68
2018-09-11T09:30:57.181Z,984.52
2018-09-11T09:31:57.435Z,984.64
2018-09-11T09:32:57.689Z,984.57
2018-09-11T09:33:57.942Z,984.62
2018-09-11T09:34:58.194Z,984.70
2018-09-11T09:35:58.447Z,984.68
2018-09-11T09:36:58.729Z,984.78
2018-09-11T09:37:58.948Z,984.82
2018-09-11T09:38:59.201Z,984.91
2018-09-11T09:39:59.450Z,984.87
2018-09-11T09:40:59.705Z,984.85
2018-09-11T09:41:59.959Z,984.96
2018-09-11T09:43:00.211Z,984.88
2018-09-11T09:44:00.517Z,984.90
2018-09-11T09:45:00.712Z,984.88
2018-09-11T09:46:00.965Z,984.91
2018-09-11T09:47:01.214Z,984.93
2018-09-11T09:48:01.470Z,984.89
2018-09-11T09:49:01.719Z,984.88
2018-09-11T09:50:01.974Z,984.97
2018-09-11T09:51:02.227Z,984.90
2018-09-11T09:52:02.477Z,984.81
2018-09-11T09:53:02.729Z,984.74
2018-09-11T09:54:02.981Z,984.91
2018-09-11T09:55:03.235Z,984.87
2018-09-11T09:56:03.483Z,984.92
2018-09-11T09:57:03.738Z,985.08
2018-09-11T09:58:03.989Z,985.06
2018-09-11T09:59:04.239Z,985.03
2018-09-11T10:00:04.491Z,985.03
2018-09-11T10:01:04.744Z,985.09
2018-09-11T10:02:04.995Z,984.92
2018-09-11T10:03:05.247Z,984.97
2018-09-11T10:04:05.504Z,984.96
2018-09-11T10:05:05.752Z,984.80
2018-09-11T10:06:06.004Z,984.91
2018-09-11T10:07:06.259Z,984.94
2018-09-11T10:08:06.509Z,984.90
2018-09-11T10:09:06.760Z,984.73
2018-09-11T10:10:07.013Z,984.77
2018-09-11T10:11:07.263Z,984.64
2018-09-11T10:12:07.517Z,984.70
2018-09-11T10:13:07.771Z,984.61
2018-09-11T10:14:08.025Z,984.57
2018-09-11T10:15:08.290Z,984.61
2018-09-11T10:16:08.532Z,984.52
2018-09-11T10:17:08.781Z,984.61
2018-09-11T10:18:09.032Z,984.59
2018-09-11T10:19:09.286Z,984.38
2018-09-11T10:20:09.540Z,984.58
2018-09-11T10:21:09.792Z,984.67
2018-09-11T10:22:10.044Z,984.61
2018-09-11T10:23:10.297Z,984.63
2018-09-11T10:24:10.551Z,984.55
2018-09-11T10:25:10.804Z,984.59
2018-09-11T10:26:11.058Z,984.44
2018-09-11T10:27:11.310Z,984.50
2018-09-11T10:28:11.562Z,984.55
2018-09-11T10:29:11.812Z,984.42
2018-09-11T10:30:12.066Z,984.53
2018-09-11T10:31:12.320Z,984.48
2018-09-11T10:32:12.570Z,984.46
2018-09-11T10:33:12.827Z,984.64
2018-09-11T10:34:13.078Z,984.90
2018-09-11T10:35:13.331Z,984.91
2018-09-11T10:36:13.583Z,984.77
2018-09-11T10:37:13.836Z,984.80
2018-09-11T10:38:14.089Z,984.82
2018-09-11T10:39:14.391Z,984.71
2018-09-11T10:40:14.596Z,984.57
2018-09-11T10:41:14.845Z,984.83
2018-09-11T10:42:15.099Z,984.63
2018-09-11T10:43:15.352Z,984.83
2018-09-11T10:44:15.605Z,984.87
2018-09-11T10:45:15.858Z,984.84
2018-09-11T10:46:16.111Z,984.94
2018-09-11T10:47:16.363Z,985.01
2018-09-11T10:48:16.616Z,984.85
2018-09-11T10:49:16.869Z,984.92
2018-09-11T10:50:17.122Z,984.94
2018-09-11T10:51:17.377Z,984.71
2018-09-11T10:52:17.630Z,984.62
2018-09-11T10:53:17.882Z,984.80
2018-09-11T10:54:18.135Z,984.67
2018-09-11T10:55:18.388Z,984.63
2018-09-11T10:56:18.640Z,984.64
2018-09-11T10:57:18.898Z,984.52
2018-09-11T10:58:19.157Z,984.73
2018-09-11T10:59:19.398Z,984.84
2018-09-11T11:00:19.657Z,984.78
2018-09-11T11:01:19.907Z,984.76
2018-09-11T11:02:20.155Z,984.83
2018-09-11T11:03:20.408Z,984.72
2018-09-11T11:04:20.662Z,984.65
2018-09-11T11:05:20.915Z,984.63
2018-09-11T11:06:21.168Z,984.60
2018-09-11T11:07:21.421Z,984.55
2018-09-11T11:08:21.679Z,984.62
2018-09-11T11:09:21.929Z,984.61
2018-09-11T11:10:22.181Z,984.53
2018-09-11T11:11:22.435Z,984.34
2018-09-11T11:12:22.691Z,984.47
2018-09-11T11:13:22.944Z,984.43
2018-09-11T11:14:23.201Z,984.39
2018-09-11T11:15:23.455Z,984.26
2018-09-11T11:16:23.708Z,984.29
2018-09-11T11:17:23.964Z,984.28
2018-09-11T11:18:24.218Z,984.30
2018-09-11T11:19:24.471Z,984.36
2018-09-11T11:20:24.727Z,984.29
2018-09-11T11:21:24.981Z,984.13
2018-09-11T11:22:25.234Z,984.21
2018-09-11T11:23:25.488Z,984.17
2018-09-11T11:24:25.745Z,984.13
2018-09-11T11:25:26.003Z,984.24
2018-09-11T11:26:26.256Z,984.30
2018-09-11T11:27:26.509Z,984.32
2018-09-11T11:28:26.762Z,984.33
2018-09-11T11:29:27.017Z,984.22
2018-09-11T11:30:27.275Z,984.03
2018-09-11T11:31:27.523Z,983.97
2018-09-11T11:32:27.776Z,983.99
2018-09-11T11:33:28.030Z,983.86
2018-09-11T11:34:28.283Z,983.96
2018-09-11T11:35:28.538Z,984.02
2018-09-11T11:36:28.870Z,983.79
2018-09-11T11:37:29.226Z,983.84
2018-09-11T11:38:29.300Z,983.80
2018-09-11T11:39:29.554Z,983.96
2018-09-11T11:40:29.806Z,983.86
2018-09-11T11:41:30.062Z,983.72
2018-09-11T11:42:30.316Z,983.88
2018-09-11T11:43:30.569Z,983.83
2018-09-11T11:44:30.823Z,983.83
2018-09-11T11:45:31.076Z,983.84
2018-09-11T11:46:31.333Z,983.88
2018-09-11T11:47:31.582Z,983.86
2018-09-11T11:48:31.829Z,983.88
2018-09-11T11:49:32.090Z,983.88
2018-09-11T11:50:32.342Z,983.82
2018-09-11T11:51:32.598Z,983.85
2018-09-11T11:52:32.851Z,983.85
2018-09-11T11:53:33.109Z,983.84
2018-09-11T11:54:33.362Z,983.85
2018-09-11T11:55:33.691Z,983.85
2018-09-11T11:56:33.869Z,983.86
2018-09-11T11:57:34.126Z,983.90
2018-09-11T11:58:34.382Z,983.88
2018-09-11T11:59:34.637Z,983.91
2018-09-11T12:00:34.896Z,983.90
2018-09-11T12:01:35.177Z,983.88
2018-09-11T12:02:35.405Z,984.01
2018-09-11T12:03:35.662Z,983.91
2018-09-11T12:04:35.918Z,983.95
2018-09-11T12:05:36.178Z,983.98
2018-09-11T12:06:36.430Z,983.94
2018-09-11T12:07:36.692Z,983.88
2018-09-11T12:08:36.943Z,983.84
2018-09-11T12:09:37.198Z,983.87
2018-09-11T12:10:37.453Z,983.83
2018-09-11T12:11:37.707Z,983.84
2018-09-11T12:12:37.964Z,983.81
2018-09-11T12:13:38.219Z,983.96
2018-09-11T12:14:38.475Z,983.93
2018-09-11T12:15:38.731Z,983.77
2018-09-11T12:16:38.985Z,983.76
2018-09-11T12:17:39.241Z,983.76
2018-09-11T12:18:39.495Z,983.78
2018-09-11T12:19:39.748Z,983.76
2018-09-11T12:20:40.007Z,983.73
2018-09-11T12:21:40.258Z,983.78
2018-09-11T12:22:40.514Z,983.74
2018-09-11T12:23:40.770Z,983.64
2018-09-11T12:24:41.028Z,983.64
2018-09-11T12:25:41.281Z,983.63
2018-09-11T12:26:41.595Z,983.60
2018-09-11T12:27:41.790Z,983.73
2018-09-11T12:28:42.044Z,983.60
2018-09-11T12:29:42.300Z,983.63
2018-09-11T12:30:42.571Z,983.51
2018-09-11T12:31:42.811Z,983.68